createdAt,value
2023-02-09T00:08:59.492Z,58.34
2023-02-09T00:19:03.094Z,58.00
2023-02-09T00:29:08.777Z,57.96
2023-02-09T00:39:16.253Z,57.54
2023-02-09T00:49:20.391Z,57.32
2023-02-09T00:59:23.967Z,56.68
2023-02-09T01:09:29.949Z,56.38
2023-02-09T01:19:35.024Z,56.19
2023-02-09T01:29:42.520Z,55.86
2023-02-09T01:39:48.826Z,55.55
2023-02-09T01:49:54.467Z,55.42
2023-02-09T02:00:07.937Z,55.07
2023-02-09T02:10:17.779Z,55.03
2023-02-09T02:20:51.806Z,55.10
2023-02-09T02:31:13.887Z,55.17
2023-02-09T02:42:02.292Z,55.33
2023-02-09T02:52:10.963Z,55.80
2023-02-09T03:02:34.268Z,55.89
2023-02-09T03:12:54.804Z,56.07
2023-02-09T03:23:02.974Z,56.24
2023-02-09T03:33:25.123Z,56.52
2023-02-09T03:43:49.707Z,56.78
2023-02-09T03:53:53.700Z,56.89
2023-02-09T04:03:59.193Z,56.99
2023-02-09T04:14:04.937Z,57.21
2023-02-09T04:24:09.171Z,57.25
2023-02-09T04:34:17.197Z,57.51
2023-02-09T04:44:21.488Z,57.63
2023-02-09T04:54:25.023Z,57.94
2023-02-09T05:04:30.258Z,58.01
2023-02-09T05:14:36.561Z,57.91
2023-02-09T05:24:42.012Z,58.03
2023-02-09T05:34:45.769Z,58.23
2023-02-09T05:44:53.379Z,57.82
2023-02-09T05:54:57.010Z,57.78
2023-02-09T06:05:00.638Z,57.67
2023-02-09T06:15:10.254Z,57.47
2023-02-09T06:25:13.788Z,57.56
2023-02-09T06:35:17.475Z,57.26
2023-02-09T06:45:21.025Z,57.03
2023-02-09T06:55:24.642Z,56.77
2023-02-09T07:05:28.247Z,56.34
2023-02-09T07:15:34.063Z,55.38
2023-02-09T07:25:37.595Z,54.69
2023-02-09T07:35:43.392Z,53.83
2023-02-09T07:45:48.325Z,53.50
2023-02-09T07:55:51.843Z,53.10
2023-02-09T08:06:00.816Z,52.54
2023-02-09T08:16:07.913Z,51.84
2023-02-09T08:26:14.182Z,51.31
2023-02-09T08:36:20.187Z,51.14
2023-02-09T08:46:26.156Z,50.58
2023-02-09T08:56:30.136Z,49.91
2023-02-09T09:06:34.958Z,49.02
2023-02-09T09:16:40.478Z,47.93
2023-02-09T09:26:44.136Z,46.90
2023-02-09T09:36:50.757Z,45.89
2023-02-09T09:46:55.056Z,45.08
2023-02-09T09:56:59.365Z,44.43
2023-02-09T10:07:14.679Z,43.97
2023-02-09T10:17:18.232Z,43.34
2023-02-09T10:27:31.346Z,43.68
2023-02-09T10:37:39.815Z,43.18
2023-02-09T10:47:57.693Z,42.43
2023-02-09T10:58:10.881Z,41.68
2023-02-09T11:08:14.492Z,41.42
2023-02-09T11:18:25.745Z,40.93
2023-02-09T11:28:39.446Z,40.47
2023-02-09T11:38:53.190Z,39.67
2023-02-09T11:49:15.730Z,39.85
2023-02-09T11:59:31.636Z,40.31
2023-02-09T12:10:14.753Z,40.29
2023-02-09T12:20:46.284Z,40.24
2023-02-09T12:30:50.120Z,40.64
2023-02-09T12:41:13.302Z,40.50
2023-02-09T12:51:53.579Z,40.36
2023-02-09T13:02:06.117Z,40.67
2023-02-09T13:12:29.263Z,41.21
2023-02-09T13:23:10.246Z,41.34
2023-02-09T13:33:41.645Z,41.73
2023-02-09T13:43:47.162Z,41.65
2023-02-09T13:54:02.288Z,41.45
2023-02-09T14:04:05.969Z,40.97
2023-02-09T14:14:59.278Z,40.72
2023-02-09T14:25:20.533Z,40.63
2023-02-09T14:35:26.536Z,40.62
2023-02-09T14:45:44.637Z,40.40
2023-02-09T14:55:48.928Z,41.06
2023-02-09T15:06:03.221Z,41.82
2023-02-09T15:16:09.180Z,42.08
2023-02-09T15:26:22.869Z,42.76
2023-02-09T15:36:27.041Z,43.19
2023-02-09T15:46:51.274Z,43.75
2023-02-09T15:56:56.871Z,44.39
2023-02-09T16:07:00.495Z,44.85
2023-02-09T16:17:08.989Z,45.45
2023-02-09T16:27:31.132Z,45.94
2023-02-09T16:37:37.240Z,46.49
2023-02-09T16:47:45.710Z,46.87
2023-02-09T16:57:54.978Z,47.60
2023-02-09T17:08:03.531Z,47.85
2023-02-09T17:18:09.682Z,48.10
2023-02-09T17:28:14.479Z,48.76
2023-02-09T17:38:23.393Z,49.00
2023-02-09T17:48:27.084Z,49.38
2023-02-09T17:58:30.846Z,49.55
2023-02-09T18:08:36.027Z,49.85
2023-02-09T18:18:43.343Z,50.36
2023-02-09T18:28:46.822Z,50.40
2023-02-09T18:38:55.223Z,50.35
2023-02-09T18:48:59.077Z,50.52
2023-02-09T18:59:04.792Z,50.30
2023-02-09T19:09:10.924Z,50.53
2023-02-09T19:19:16.483Z,50.44
2023-02-09T19:29:20.421Z,50.58
2023-02-09T19:39:31.172Z,50.78
2023-02-09T19:49:35.359Z,50.82
2023-02-09T19:59:39.029Z,50.91
2023-02-09T20:09:42.965Z,50.64
2023-02-09T20:19:46.786Z,50.69
2023-02-09T20:30:51.653Z,50.59
2023-02-09T20:40:55.268Z,50.87
2023-02-09T20:50:58.869Z,50.78
2023-02-09T21:01:06.219Z,50.71
2023-02-09T21:11:10.284Z,50.84
2023-02-09T21:21:19.282Z,50.88
2023-02-09T21:31:26.674Z,50.98
2023-02-09T21:41:49.191Z,50.88
2023-02-09T21:51:52.871Z,51.45
2023-02-09T22:01:57.414Z,51.24
2023-02-09T22:12:05.363Z,51.82
2023-02-09T22:22:10.916Z,51.77
2023-02-09T22:32:14.434Z,51.89
2023-02-09T22:42:18.836Z,51.97
2023-02-09T22:52:22.605Z,51.99
2023-02-09T23:02:26.285Z,52.33
2023-02-09T23:12:29.933Z,52.43
2023-02-09T23:22:33.673Z,52.34
2023-02-09T23:32:37.317Z,52.65
2023-02-09T23:42:40.932Z,52.58
2023-02-09T23:52:44.543Z,52.07
